METAR AND TAF INFORMATION
METAR FOR RJNT
RJNT 130900Z 36007KT 9999 FEW020 16/08 Q1018
RJNT 130800Z 36009KT CAVOK 18/07 Q1017
RJNT 130700Z 35007KT CAVOK 19/07 Q1017

TAF RJNT 130505Z 1306/1412 36006KT 9999 FEW030
BECMG 1310/1312 24004KT
BECMG 1400/1403 36008KT
BECMG 1409/1412 24004KT

 AIRPORT MAP

 RUNWAY INFORMATION
Runway 02 Runway length 6562 ft Runway width 150 ft
Runway elevation 95 ft Runway displaced threshold 0 ft Runway heading 14
Runway 20 Runway length 6562 ft Runway width 150 ft
Runway elevation 63 ft Runway displaced threshold 0 ft Runway heading 194

 AIRPORT FREQUENCIES
Type TWR Name TWR Frequency 124.3 MHZ

 AIRPORT NEAR NAVIGATION AIDS
Type VOR-DME Name Toyama Frequency 110850 KHZ

-